Flight Track Log - Related Links

Times and Time Zones

All times are in EDT time to prevent confusion due to time zone crossing. See the SWA554 flight status page for this flight to view local times or setup timezone preferences in your user account.

Time Position Orientation Groundspeed Altitude Reporting Facility
EDT Latitude Longitude Course Direction KTS MPH feet Rate Location/Type
Fri 09:10:44 AM 36.0756 -115.1658 267° West 163 188 3,400  Level Los Angeles Center
Fri 09:11:45 AM 36.0719 -115.2386 267° West 227 261 5,900 2,292 Climbing Los Angeles Center
Fri 09:12:13 AM 36.0494 -115.2642 223° Southwest 257 296 6,800 1,180 Climbing Los Angeles Center
Fri 09:12:46 AM 36.0061 -115.2842 200° South 286 329 7,100 300 Climbing Los Angeles Center
Fri 09:13:13 AM 35.9742 -115.2953 196° South 281 323 7,100 1,231 Level Los Angeles Center
Fri 09:14:04 AM 35.9100 -115.2786 168° South 278 320 8,700 2,426 Climbing Los Angeles Center
Fri 09:14:47 AM 35.8631 -115.2408 147° Southeast 301 346 10,900 3,042 Climbing Los Angeles Center
Fri 09:15:15 AM 35.8511 -115.1936 107° East 305 351 12,300 3,506 Climbing Los Angeles Center
Fri 09:16:16 AM 35.8231 -115.0797 107° East 341 392 16,100 3,769 Climbing Los Angeles Center
Fri 09:17:16 AM 35.8294 -114.9553 86° East 364 419 19,900 3,471 Climbing Los Angeles Center
Fri 09:18:17 AM 35.8394 -114.8256 85° East 377 434 23,100 3,148 Climbing Los Angeles Center
Fri 09:19:18 AM 35.8497 -114.6881 85° East 396 456 26,300 2,902 Climbing Los Angeles Center
Fri 09:20:19 AM 35.8331 -114.5531 99° East 411 473 29,000 1,328 Climbing Los Angeles Center
Fri 09:21:20 AM 35.7703 -114.4364 124° Southeast 411 473 29,000  Level Los Angeles Center
Fri 09:22:20 AM 35.7086 -114.3197 123° Southeast 407 468 29,000  Level Los Angeles Center
Fri 09:23:21 AM 35.6597 -114.2289 124° Southeast 406 467 29,000  Level Los Angeles Center
Fri 09:24:22 AM 35.5858 -114.0889 123° Southeast 408 470 29,000  Level Los Angeles Center
Fri 09:25:23 AM 35.5244 -113.9756 124° Southeast 403 464 29,000  Level Los Angeles Center
Fri 09:26:26 AM 35.4433 -113.8464 128° Southeast 401 461 29,000  Level Los Angeles Center
Fri 09:27:25 AM 35.3658 -113.7511 135° Southeast 399 459 29,000  Level Los Angeles Center
Fri 09:28:27 AM 35.2839 -113.6439 133° Southeast 429 494 29,000  Level Los Angeles Center
Fri 09:29:28 AM 35.1981 -113.5333 134° Southeast 450 518 29,000  Level Los Angeles Center
Fri 09:30:29 AM 35.1117 -113.4233 134° Southeast 454 522 29,000  Level Los Angeles Center
Fri 09:31:32 AM 35.0242 -113.3131 134° Southeast 458 527 29,000  Level Albuquerque Center
Fri 09:32:33 AM 34.9200 -113.1778 133° Southeast 461 531 29,000  Level Albuquerque Center
Fri 09:33:34 AM 34.8328 -113.0681 134° Southeast 459 528 29,000  Level Albuquerque Center
Fri 09:34:35 AM 34.7469 -112.9592 134° Southeast 453 521 29,000  Level Albuquerque Center
Fri 09:35:36 AM 34.6592 -112.8506 134° Southeast 453 521 29,000 -885 Level Albuquerque Center
Fri 09:36:37 AM 34.5733 -112.7417 134° Southeast 451 519 27,200 -2,066 Descending Albuquerque Center
Fri 09:37:38 AM 34.4917 -112.6386 134° Southeast 435 501 24,800 -2,479 Descending Albuquerque Center
Fri 09:38:38 AM 34.4061 -112.5328 134° Southeast 415 478 22,200 -2,430 Descending Albuquerque Center
Fri 09:39:39 AM 34.3300 -112.4389 134° Southeast 398 458 19,900 -2,262 Descending Albuquerque Center
Fri 09:40:40 AM 34.2572 -112.3486 134° Southeast 382 440 17,600 -2,311 Descending Albuquerque Center
Fri 09:41:41 AM 34.1867 -112.2611 134° Southeast 369 425 15,200 -2,262 Descending Albuquerque Center
Fri 09:42:42 AM 34.1189 -112.1772 134° Southeast 354 407 13,000 -1,574 Descending Albuquerque Center
Fri 09:43:43 AM 34.0364 -112.1417 160° South 331 381 12,000 -1,033 Descending Albuquerque Center
Fri 09:44:44 AM 33.9497 -112.1517 185° South 318 366 10,900 -1,082 Descending Albuquerque Center
Fri 09:45:45 AM 33.8458 -112.1686 188° South 311 358 9,800 -1,230 Descending Albuquerque Center
Fri 09:46:46 AM 33.7636 -112.1861 190° South 303 349 8,400 -1,426 Descending Albuquerque Center
Fri 09:47:47 AM 33.6861 -112.2019 190° South 288 331 6,900 -1,230 Descending Albuquerque Center
Fri 09:48:48 AM 33.6114 -112.2039 181° South 272 313 5,900 -683 Descending Albuquerque Center
Fri 09:49:50 AM 33.5458 -112.2064 182° South 241 277 5,500 -634 Descending Albuquerque Center
Fri 09:50:51 AM 33.4825 -112.2078 181° South 231 266 4,600 -934 Descending Albuquerque Center
Fri 09:51:52 AM 33.4492 -112.1583 129° Southeast 190 219 3,600 -885 Descending Albuquerque Center
Fri 09:52:53 AM 33.4406 -112.1075 101° East 160 184 2,800 -984 Descending Albuquerque Center
Fri 09:53:54 AM 33.4411 -112.0622 89° East 141 162 1,600 -885 Descending Albuquerque Center
Fri 09:54:55 AM 33.4408 -112.0236 90° East 120 138 1,000 -590 Descending Albuquerque Center
Fri 09:56:00 AM 33.4343 -112.0116 270° West  Level Estimated

Login

Don't have an account? Register now (free) for customized features, flight alerts, and more!